createdAt,value
2022-11-27T00:02:24.478Z,4.90
2022-11-27T00:04:51.304Z,4.91
2022-11-27T00:07:18.168Z,4.71
2022-11-27T00:09:44.969Z,4.82
2022-11-27T00:12:11.946Z,4.88
2022-11-27T00:14:38.621Z,4.77
2022-11-27T00:17:05.378Z,4.83
2022-11-27T00:19:33.412Z,4.91
2022-11-27T00:22:00.362Z,4.65
2022-11-27T00:24:27.231Z,4.63
2022-11-27T00:26:54.102Z,4.94
2022-11-27T00:29:22.153Z,4.94
2022-11-27T00:31:49.172Z,4.79
2022-11-27T00:34:15.949Z,4.79
2022-11-27T00:36:46.634Z,4.76
2022-11-27T00:39:15.132Z,4.74
2022-11-27T00:41:41.803Z,4.83
2022-11-27T00:44:08.524Z,4.89
2022-11-27T00:46:35.922Z,4.66
2022-11-27T00:49:06.097Z,4.81
2022-11-27T00:51:33.164Z,4.60
2022-11-27T00:54:00.284Z,4.50
2022-11-27T00:56:33.489Z,4.76
2022-11-27T00:59:01.223Z,4.65
2022-11-27T01:01:38.767Z,4.79
2022-11-27T01:04:08.878Z,4.81
2022-11-27T01:06:35.599Z,5.01
2022-11-27T01:09:03.619Z,5.18
2022-11-27T01:11:32.166Z,4.81
2022-11-27T01:14:01.676Z,4.80
2022-11-27T01:16:30.051Z,4.97
2022-11-27T01:18:59.157Z,4.89
2022-11-27T01:21:28.572Z,4.85
2022-11-27T01:23:55.731Z,5.00
2022-11-27T01:26:23.138Z,5.24
2022-11-27T01:28:54.808Z,5.24
2022-11-27T01:31:28.008Z,5.35
2022-11-27T01:33:58.234Z,5.49
2022-11-27T01:36:26.034Z,5.55
2022-11-27T01:38:52.982Z,5.47
2022-11-27T01:41:41.488Z,5.32
2022-11-27T01:44:26.173Z,5.34
2022-11-27T01:47:05.849Z,5.31
2022-11-27T01:49:37.983Z,5.29
2022-11-27T01:52:12.194Z,5.40
2022-11-27T01:54:39.391Z,5.35
2022-11-27T01:57:13.413Z,5.14
2022-11-27T01:59:41.349Z,5.28
2022-11-27T02:02:08.355Z,5.02
2022-11-27T02:04:35.376Z,5.12
2022-11-27T02:07:02.271Z,5.40
2022-11-27T02:09:29.992Z,5.27
2022-11-27T02:12:27.254Z,5.42
2022-11-27T02:15:13.280Z,5.29
2022-11-27T02:18:03.498Z,5.37
2022-11-27T02:20:43.236Z,5.32
2022-11-27T02:23:47.689Z,5.31
2022-11-27T02:26:41.806Z,5.47
2022-11-27T02:29:13.722Z,5.50
2022-11-27T02:31:46.495Z,5.20
2022-11-27T02:34:37.092Z,5.03
2022-11-27T02:37:24.218Z,4.98
2022-11-27T02:40:28.453Z,5.21
2022-11-27T02:43:09.280Z,5.13
2022-11-27T02:45:43.340Z,5.24
2022-11-27T02:48:13.586Z,5.26
2022-11-27T02:50:44.294Z,5.56
2022-11-27T02:53:19.173Z,5.69
2022-11-27T02:55:48.893Z,5.72
2022-11-27T02:58:19.823Z,5.61
2022-11-27T03:00:47.745Z,5.63
2022-11-27T03:03:18.750Z,5.68
2022-11-27T03:05:49.613Z,5.36
2022-11-27T03:08:32.516Z,5.64
2022-11-27T03:11:06.305Z,5.52
2022-11-27T03:13:38.470Z,5.58
2022-11-27T03:16:12.265Z,5.54
2022-11-27T03:18:54.274Z,5.54
2022-11-27T03:21:42.380Z,5.66
2022-11-27T03:24:10.278Z,5.27
2022-11-27T03:26:38.256Z,4.72
2022-11-27T03:29:09.892Z,4.82
2022-11-27T03:31:38.053Z,5.20
2022-11-27T03:34:05.406Z,5.33
2022-11-27T03:36:32.254Z,5.37
2022-11-27T03:38:58.984Z,5.41
2022-11-27T03:41:41.088Z,5.41
2022-11-27T03:44:41.180Z,5.01
2022-11-27T03:47:27.113Z,5.17
2022-11-27T03:50:14.643Z,5.10
2022-11-27T03:52:59.529Z,5.28
2022-11-27T03:55:49.629Z,5.02
2022-11-27T03:58:28.861Z,4.78
2022-11-27T04:00:59.151Z,5.05
2022-11-27T04:03:30.348Z,5.22
2022-11-27T04:05:57.633Z,5.29
2022-11-27T04:08:24.901Z,5.44
2022-11-27T04:10:51.754Z,4.82
2022-11-27T04:13:18.505Z,4.80
2022-11-27T04:15:45.376Z,4.62
2022-11-27T04:18:12.536Z,4.98
2022-11-27T04:20:39.433Z,4.73
2022-11-27T04:23:06.190Z,4.76
2022-11-27T04:25:33.176Z,4.80
2022-11-27T04:27:59.919Z,4.51
2022-11-27T04:30:26.622Z,4.69
2022-11-27T04:32:53.673Z,4.97
2022-11-27T04:35:20.443Z,4.87
2022-11-27T04:37:47.323Z,4.91
2022-11-27T04:40:14.222Z,4.53
2022-11-27T04:42:41.414Z,4.26
2022-11-27T04:45:09.292Z,4.54
2022-11-27T04:47:36.070Z,4.41
2022-11-27T04:50:03.540Z,4.36
2022-11-27T04:52:30.211Z,4.18
2022-11-27T04:55:00.188Z,4.67
2022-11-27T04:57:28.212Z,4.77
2022-11-27T04:59:55.168Z,4.85
2022-11-27T05:02:22.021Z,4.78
2022-11-27T05:04:48.958Z,5.02
2022-11-27T05:07:15.658Z,4.72
2022-11-27T05:09:42.420Z,4.36
2022-11-27T05:12:09.218Z,4.57
2022-11-27T05:14:36.010Z,4.55
2022-11-27T05:17:02.781Z,4.75
2022-11-27T05:19:30.659Z,4.71
2022-11-27T05:21:57.688Z,4.81
2022-11-27T05:24:26.693Z,4.76
2022-11-27T05:26:54.031Z,4.84
2022-11-27T05:29:21.493Z,5.10
2022-11-27T05:31:48.472Z,5.21
2022-11-27T05:34:15.602Z,4.93
2022-11-27T05:36:42.580Z,4.87
2022-11-27T05:39:10.973Z,4.64
2022-11-27T05:41:39.138Z,4.82
2022-11-27T05:44:06.401Z,4.91
2022-11-27T05:46:33.238Z,5.11
2022-11-27T05:49:00.331Z,5.21
2022-11-27T05:51:27.132Z,5.34
2022-11-27T05:53:54.083Z,5.39
2022-11-27T05:56:20.970Z,5.39
2022-11-27T05:58:48.277Z,5.25
2022-11-27T06:01:17.017Z,5.41
2022-11-27T06:03:44.283Z,5.21
2022-11-27T06:06:19.502Z,5.39
2022-11-27T06:08:47.320Z,5.29
2022-11-27T06:11:20.224Z,5.26
2022-11-27T06:13:48.637Z,5.28
2022-11-27T06:16:18.506Z,5.22
2022-11-27T06:18:46.045Z,5.18
2022-11-27T06:21:14.798Z,4.75
2022-11-27T06:23:42.814Z,4.91
2022-11-27T06:26:13.870Z,4.94
2022-11-27T06:28:41.153Z,4.95
2022-11-27T06:31:18.213Z,5.14
2022-11-27T06:33:46.180Z,5.26
2022-11-27T06:36:13.568Z,5.41
2022-11-27T06:38:40.541Z,5.29
2022-11-27T06:41:18.991Z,5.22
2022-11-27T06:43:46.164Z,5.15
2022-11-27T06:46:18.084Z,5.29
2022-11-27T06:48:46.946Z,5.39
2022-11-27T06:51:17.346Z,5.25
2022-11-27T06:53:44.594Z,4.81
2022-11-27T06:56:29.540Z,5.00
2022-11-27T06:59:01.177Z,5.21
2022-11-27T07:01:31.298Z,5.33
2022-11-27T07:03:58.706Z,5.24
2022-11-27T07:06:26.851Z,5.45
2022-11-27T07:08:54.809Z,5.45
2022-11-27T07:11:24.935Z,5.30
2022-11-27T07:13:52.313Z,5.28
2022-11-27T07:16:19.214Z,5.29
2022-11-27T07:18:48.809Z,5.57
2022-11-27T07:21:16.231Z,5.47
2022-11-27T07:23:43.161Z,5.68
2022-11-27T07:26:15.809Z,5.89
2022-11-27T07:28:43.931Z,5.60
2022-11-27T07:31:15.991Z,5.73
2022-11-27T07:33:42.919Z,5.76
2022-11-27T07:36:21.820Z,5.09
2022-11-27T07:38:48.951Z,5.47
2022-11-27T07:41:16.464Z,5.78
2022-11-27T07:43:44.582Z,5.40
2022-11-27T07:46:20.599Z,4.73
2022-11-27T07:48:47.834Z,5.02
2022-11-27T07:51:17.405Z,5.00
2022-11-27T07:53:44.693Z,5.37
2022-11-27T07:56:13.918Z,5.55
2022-11-27T07:58:41.073Z,5.74
2022-11-27T08:01:09.844Z,5.95
2022-11-27T08:03:37.052Z,6.12
2022-11-27T08:06:04.926Z,5.90
2022-11-27T08:08:32.461Z,5.93
2022-11-27T08:10:59.217Z,5.93
2022-11-27T08:13:25.932Z,5.97
2022-11-27T08:15:52.929Z,5.91
2022-11-27T08:18:19.633Z,5.81
2022-11-27T08:20:46.478Z,6.02
2022-11-27T08:23:13.221Z,5.99
2022-11-27T08:25:40.200Z,6.12
2022-11-27T08:28:06.865Z,6.19
2022-11-27T08:30:34.093Z,6.32
2022-11-27T08:33:00.959Z,6.46
2022-11-27T08:35:27.799Z,5.85
2022-11-27T08:37:54.720Z,6.19
2022-11-27T08:40:21.595Z,6.23
2022-11-27T08:42:48.360Z,6.21
2022-11-27T08:45:15.360Z,6.12
2022-11-27T08:47:43.442Z,6.26
2022-11-27T08:50:10.718Z,6.41
2022-11-27T08:52:37.627Z,6.33
2022-11-27T08:55:04.912Z,6.43
2022-11-27T08:57:31.729Z,6.32
2022-11-27T08:59:58.564Z,6.05
2022-11-27T09:02:25.279Z,6.24
2022-11-27T09:04:52.143Z,6.57
2022-11-27T09:07:19.055Z,6.76
2022-11-27T09:09:45.917Z,6.25
2022-11-27T09:12:12.851Z,6.49
2022-11-27T09:14:40.136Z,6.38
2022-11-27T09:17:07.235Z,6.10
2022-11-27T09:19:33.962Z,6.58
2022-11-27T09:22:00.869Z,6.72
2022-11-27T09:24:27.590Z,7.16
2022-11-27T09:26:54.538Z,6.95
2022-11-27T09:29:21.461Z,6.99
2022-11-27T09:31:48.337Z,6.99
2022-11-27T09:34:15.327Z,7.27
2022-11-27T09:36:42.073Z,7.25
2022-11-27T09:39:08.941Z,7.34
2022-11-27T09:41:58.642Z,7.41
2022-11-27T09:44:31.034Z,7.80
2022-11-27T09:47:41.181Z,7.82
2022-11-27T09:50:18.497Z,7.72
2022-11-27T09:52:54.014Z,7.98
2022-11-27T09:55:48.734Z,7.74
2022-11-27T09:58:20.273Z,7.52
2022-11-27T10:00:47.953Z,7.82
2022-11-27T10:03:25.648Z,7.40
2022-11-27T10:06:26.578Z,7.76
2022-11-27T10:09:28.084Z,7.62
2022-11-27T10:12:03.305Z,7.83
2022-11-27T10:15:04.861Z,8.02
2022-11-27T10:17:52.229Z,8.15
2022-11-27T10:20:32.332Z,8.23
2022-11-27T10:23:14.000Z,8.40
2022-11-27T10:25:58.515Z,8.11
2022-11-27T10:28:46.153Z,8.71
2022-11-27T10:31:19.989Z,8.66
2022-11-27T10:33:53.771Z,8.58
2022-11-27T10:36:44.931Z,8.16
2022-11-27T10:39:36.938Z,8.46
2022-11-27T10:42:10.740Z,8.56
2022-11-27T10:44:52.228Z,8.79
2022-11-27T10:47:23.181Z,8.46
2022-11-27T10:49:50.141Z,8.51
2022-11-27T10:52:19.918Z,8.56
2022-11-27T10:54:56.707Z,8.64
2022-11-27T10:57:46.807Z,8.80
2022-11-27T11:00:19.173Z,8.65
2022-11-27T11:02:46.205Z,8.63
2022-11-27T11:08:20.487Z,9.13
2022-11-27T11:10:59.430Z,8.62
2022-11-27T11:13:31.537Z,8.96
2022-11-27T11:16:00.449Z,8.84
2022-11-27T11:18:30.788Z,8.80
2022-11-27T11:21:00.489Z,8.90
2022-11-27T11:23:33.857Z,9.02
2022-11-27T11:26:05.465Z,8.95
2022-11-27T11:28:39.386Z,9.19
2022-11-27T11:31:09.954Z,8.92
2022-11-27T11:33:48.226Z,8.50
2022-11-27T11:36:15.491Z,8.46
2022-11-27T11:38:46.838Z,8.27
2022-11-27T11:41:18.131Z,8.38
2022-11-27T11:44:01.978Z,8.48
2022-11-27T11:46:33.721Z,8.56
2022-11-27T11:49:07.461Z,8.85
2022-11-27T11:51:37.328Z,8.91
2022-11-27T11:54:26.667Z,9.03
2022-11-27T11:57:00.183Z,8.88
2022-11-27T11:59:45.537Z,8.71
2022-11-27T12:02:26.260Z,8.58
2022-11-27T12:05:27.171Z,8.65
2022-11-27T12:08:21.697Z,8.75
2022-11-27T12:11:00.115Z,8.49
2022-11-27T12:14:01.018Z,8.52
2022-11-27T12:17:10.315Z,8.86
2022-11-27T12:19:55.221Z,8.84
2022-11-27T12:23:00.516Z,9.01
2022-11-27T12:25:37.727Z,8.86
2022-11-27T12:28:53.179Z,9.05
2022-11-27T12:31:58.543Z,9.29
2022-11-27T12:34:56.609Z,9.37
2022-11-27T12:37:49.535Z,9.62
2022-11-27T12:40:40.877Z,9.56
2022-11-27T12:43:26.745Z,9.59
2022-11-27T12:46:18.900Z,9.47
2022-11-27T12:48:56.895Z,9.63
2022-11-27T12:51:32.194Z,9.69
2022-11-27T12:54:17.900Z,9.45
2022-11-27T12:56:52.521Z,9.34
2022-11-27T12:59:38.981Z,9.16
2022-11-27T13:02:13.662Z,9.36
2022-11-27T13:04:48.271Z,9.30
2022-11-27T13:07:26.913Z,9.16
2022-11-27T13:09:56.709Z,8.88
2022-11-27T13:12:33.950Z,9.29
2022-11-27T13:15:06.783Z,9.27
2022-11-27T13:17:42.435Z,9.25
2022-11-27T13:20:18.105Z,9.43
2022-11-27T13:22:46.833Z,9.46
2022-11-27T13:25:14.857Z,9.27
2022-11-27T13:27:46.590Z,9.42
2022-11-27T13:30:34.822Z,8.98
2022-11-27T13:33:06.304Z,9.02
2022-11-27T13:35:36.573Z,9.42
2022-11-27T13:38:14.371Z,9.32
2022-11-27T13:40:45.172Z,9.11
2022-11-27T13:43:42.722Z,9.21
2022-11-27T13:46:18.429Z,9.55
2022-11-27T13:49:05.922Z,9.42
2022-11-27T13:51:35.363Z,9.64
2022-11-27T13:54:12.076Z,9.88
2022-11-27T13:56:40.214Z,9.95
2022-11-27T13:59:36.457Z,9.49
2022-11-27T14:02:08.089Z,9.74
2022-11-27T14:04:35.810Z,9.95
2022-11-27T14:07:13.651Z,9.85
2022-11-27T14:09:45.873Z,9.65
2022-11-27T14:12:33.183Z,9.65
2022-11-27T14:15:08.954Z,9.86
2022-11-27T14:17:44.658Z,9.66
2022-11-27T14:20:17.502Z,9.71
2022-11-27T14:23:11.758Z,9.55
2022-11-27T14:25:39.025Z,9.34
2022-11-27T14:28:26.293Z,9.50
2022-11-27T14:31:01.110Z,9.28
2022-11-27T14:33:47.329Z,9.46
2022-11-27T14:36:26.444Z,9.50
2022-11-27T14:38:53.393Z,9.29
2022-11-27T14:41:22.773Z,9.39
2022-11-27T14:44:19.464Z,9.31
2022-11-27T14:46:46.502Z,9.35
2022-11-27T14:49:19.323Z,9.45
2022-11-27T14:51:46.613Z,9.28
2022-11-27T14:54:34.519Z,9.46
2022-11-27T14:57:02.532Z,9.31
2022-11-27T14:59:29.294Z,9.37
2022-11-27T15:02:16.067Z,9.17
2022-11-27T15:04:44.304Z,9.62
2022-11-27T15:07:20.359Z,9.33
2022-11-27T15:09:50.419Z,8.85
2022-11-27T15:12:23.091Z,9.01
2022-11-27T15:14:56.102Z,8.85
2022-11-27T15:17:36.659Z,9.05
2022-11-27T15:20:13.838Z,9.06
2022-11-27T15:22:49.120Z,9.16
2022-11-27T15:25:38.827Z,9.18
2022-11-27T15:28:47.229Z,9.36
2022-11-27T15:31:25.822Z,9.09
2022-11-27T15:34:15.612Z,8.73
2022-11-27T15:36:47.725Z,8.87
2022-11-27T15:39:19.898Z,8.92
2022-11-27T15:41:51.707Z,8.66
2022-11-27T15:44:18.728Z,8.51
2022-11-27T15:46:46.074Z,8.47
2022-11-27T15:49:14.766Z,8.36
2022-11-27T15:51:42.525Z,8.35
2022-11-27T15:54:09.925Z,8.56
2022-11-27T15:56:36.589Z,8.86
2022-11-27T15:59:04.024Z,8.78
2022-11-27T16:01:30.845Z,8.78
2022-11-27T16:03:58.353Z,8.67
2022-11-27T16:06:25.674Z,8.64
2022-11-27T16:09:00.134Z,8.68
2022-11-27T16:11:29.992Z,8.56
2022-11-27T16:13:57.033Z,8.54
2022-11-27T16:16:24.369Z,8.59
2022-11-27T16:18:51.483Z,8.56
2022-11-27T16:21:18.833Z,8.43
2022-11-27T16:23:45.656Z,7.87
2022-11-27T16:26:14.464Z,8.33
2022-11-27T16:28:42.414Z,8.39
2022-11-27T16:31:12.038Z,8.42
2022-11-27T16:33:38.975Z,8.31
2022-11-27T16:36:08.120Z,8.74
2022-11-27T16:38:35.841Z,8.62
2022-11-27T16:41:06.253Z,8.58
2022-11-27T16:43:38.629Z,8.37
2022-11-27T16:46:11.109Z,8.20
2022-11-27T16:48:39.715Z,8.29
2022-11-27T16:51:13.158Z,8.34
2022-11-27T16:53:42.453Z,8.59
2022-11-27T16:56:11.258Z,8.59
2022-11-27T16:58:40.881Z,8.51
2022-11-27T17:01:12.672Z,8.38
2022-11-27T17:03:40.095Z,8.19
2022-11-27T17:06:19.110Z,8.50
2022-11-27T17:08:46.601Z,8.18
2022-11-27T17:11:15.190Z,8.34
2022-11-27T17:13:42.093Z,8.12
2022-11-27T17:16:09.352Z,7.97
2022-11-27T17:18:38.293Z,8.19
2022-11-27T17:21:18.213Z,8.14
2022-11-27T17:23:46.997Z,8.13
2022-11-27T17:26:16.979Z,8.32
2022-11-27T17:28:44.706Z,8.52
2022-11-27T17:31:37.038Z,8.50
2022-11-27T17:34:05.889Z,7.95
2022-11-27T17:36:37.122Z,7.83
2022-11-27T17:39:06.240Z,7.76
2022-11-27T17:41:34.094Z,7.39
2022-11-27T17:44:04.378Z,7.54
2022-11-27T17:46:32.483Z,7.76
2022-11-27T17:49:01.305Z,7.78
2022-11-27T17:51:30.769Z,7.80
2022-11-27T17:54:02.697Z,8.08
2022-11-27T17:56:32.684Z,8.02
2022-11-27T17:58:59.964Z,8.21
2022-11-27T18:01:29.485Z,8.14
2022-11-27T18:04:00.486Z,8.30
2022-11-27T18:06:30.410Z,8.36
2022-11-27T18:08:58.557Z,8.38
2022-11-27T18:11:28.221Z,8.30
2022-11-27T18:13:58.380Z,8.08
2022-11-27T18:16:29.451Z,8.11
2022-11-27T18:18:58.148Z,8.15
2022-11-27T18:21:28.917Z,8.17
2022-11-27T18:29:30.405Z,8.11
2022-11-27T18:31:57.347Z,8.11
2022-11-27T18:34:24.348Z,8.05
2022-11-27T18:36:51.114Z,7.87
2022-11-27T18:39:18.856Z,8.01
2022-11-27T18:41:45.611Z,8.23
2022-11-27T18:44:12.657Z,8.28
2022-11-27T18:46:39.633Z,7.98
2022-11-27T18:49:07.554Z,8.07
2022-11-27T18:51:35.060Z,7.98
2022-11-27T18:54:02.139Z,8.03
2022-11-27T18:56:31.091Z,8.04
2022-11-27T18:59:04.105Z,7.88
2022-11-27T19:01:40.848Z,7.88
2022-11-27T19:04:08.395Z,7.74
2022-11-27T19:06:35.955Z,7.88
2022-11-27T19:09:03.591Z,7.86
2022-11-27T19:11:31.156Z,8.29
2022-11-27T19:13:59.282Z,7.76
2022-11-27T19:16:34.370Z,7.80
2022-11-27T19:19:03.081Z,7.62
2022-11-27T19:21:32.846Z,7.32
2022-11-27T19:24:03.869Z,7.48
2022-11-27T19:26:33.313Z,7.81
2022-11-27T19:29:03.597Z,7.86
2022-11-27T19:31:33.251Z,7.73
2022-11-27T19:34:02.346Z,7.66
2022-11-27T19:36:31.000Z,7.85
2022-11-27T19:39:04.581Z,7.99
2022-11-27T19:41:31.629Z,7.93
2022-11-27T19:44:03.636Z,7.91
2022-11-27T19:46:33.893Z,7.77
2022-11-27T19:49:05.864Z,7.70
2022-11-27T19:51:35.174Z,7.71
2022-11-27T19:54:08.375Z,7.38
2022-11-27T19:56:40.063Z,7.21
2022-11-27T19:59:08.493Z,7.22
2022-11-27T20:01:37.681Z,7.19
2022-11-27T20:04:05.632Z,7.15
2022-11-27T20:06:32.599Z,6.51
2022-11-27T20:09:02.043Z,6.86
2022-11-27T20:11:34.266Z,6.89
2022-11-27T20:14:04.926Z,6.96
2022-11-27T20:16:34.141Z,7.27
2022-11-27T20:19:05.428Z,7.16
2022-11-27T20:21:34.597Z,7.24
2022-11-27T20:24:02.996Z,7.39
2022-11-27T20:26:30.738Z,6.88
2022-11-27T20:28:59.336Z,6.81
2022-11-27T20:31:32.139Z,7.10
2022-11-27T20:34:01.740Z,7.28
2022-11-27T20:36:30.575Z,7.44
2022-11-27T20:38:59.453Z,7.49
2022-11-27T20:41:27.262Z,7.19
2022-11-27T20:44:00.489Z,7.53
2022-11-27T20:46:29.297Z,7.64
2022-11-27T20:48:56.672Z,7.46
2022-11-27T20:51:30.936Z,7.69
2022-11-27T20:54:00.294Z,7.47
2022-11-27T20:56:29.042Z,7.78
2022-11-27T20:58:57.333Z,7.77
2022-11-27T21:01:26.315Z,7.48
2022-11-27T21:03:55.685Z,7.36
2022-11-27T21:06:26.586Z,7.38
2022-11-27T21:08:55.828Z,7.34
2022-11-27T21:11:28.409Z,7.51
2022-11-27T21:13:59.923Z,7.38
2022-11-27T21:16:30.278Z,7.62
2022-11-27T21:18:59.831Z,7.62
2022-11-27T21:21:26.968Z,7.49
2022-11-27T21:23:54.352Z,7.79
2022-11-27T21:26:21.690Z,7.49
2022-11-27T21:28:50.273Z,7.66
2022-11-27T21:31:22.803Z,7.62
2022-11-27T21:33:55.713Z,7.67
2022-11-27T21:36:26.916Z,7.72
2022-11-27T21:38:54.303Z,7.58
2022-11-27T21:41:21.087Z,7.71
2022-11-27T21:43:49.269Z,7.81
2022-11-27T21:46:19.380Z,7.66
2022-11-27T21:48:47.767Z,7.65
2022-11-27T21:51:15.729Z,7.61
2022-11-27T21:53:44.195Z,7.51
2022-11-27T21:56:14.765Z,7.46
2022-11-27T21:58:43.428Z,7.31
2022-11-27T22:01:14.602Z,7.52
2022-11-27T22:03:42.953Z,7.67
2022-11-27T22:06:14.694Z,7.77
2022-11-27T22:08:44.602Z,7.92
2022-11-27T22:11:18.275Z,7.76
2022-11-27T22:13:45.752Z,7.85
2022-11-27T22:16:21.937Z,7.65
2022-11-27T22:18:49.602Z,7.53
2022-11-27T22:21:17.156Z,7.50
2022-11-27T22:23:44.703Z,7.59
2022-11-27T22:26:16.479Z,7.74
2022-11-27T22:28:43.720Z,7.46
2022-11-27T22:31:13.595Z,7.59
2022-11-27T22:33:42.072Z,7.51
2022-11-27T22:36:18.072Z,7.38
2022-11-27T22:38:49.322Z,7.65
2022-11-27T22:41:17.915Z,7.74
2022-11-27T22:43:46.371Z,7.52
2022-11-27T22:46:23.028Z,7.65
2022-11-27T22:48:58.416Z,7.68
2022-11-27T22:51:27.065Z,7.48
2022-11-27T22:53:53.981Z,7.60
2022-11-27T22:56:21.149Z,7.52
2022-11-27T22:58:48.533Z,7.25
2022-11-27T23:01:18.894Z,7.44
2022-11-27T23:03:45.926Z,7.17
2022-11-27T23:06:17.609Z,7.10
2022-11-27T23:08:46.089Z,7.29
2022-11-27T23:11:21.921Z,7.22
2022-11-27T23:13:50.114Z,7.29
2022-11-27T23:16:17.731Z,7.31
2022-11-27T23:18:44.597Z,7.32
2022-11-27T23:21:17.472Z,7.65
2022-11-27T23:23:45.234Z,7.54
2022-11-27T23:26:18.627Z,7.26
2022-11-27T23:28:46.996Z,7.34
2022-11-27T23:31:33.187Z,7.33
2022-11-27T23:34:02.159Z,7.51
2022-11-27T23:36:30.258Z,7.34
2022-11-27T23:38:59.724Z,7.01
2022-11-27T23:41:27.122Z,6.93
2022-11-27T23:43:54.056Z,6.97
2022-11-27T23:46:25.211Z,7.06
2022-11-27T23:48:54.717Z,6.97
2022-11-27T23:51:27.542Z,7.27
2022-11-27T23:53:54.597Z,7.17
2022-11-27T23:56:24.015Z,7.16
2022-11-27T23:58:50.934Z,7.13
